createdAt,value
2018-01-23T00:00:01.390Z,94172.92
2018-01-23T00:02:27.876Z,94180.53
2018-01-23T00:04:54.442Z,94174.38
2018-01-23T00:07:21.787Z,94171.52
2018-01-23T00:09:48.369Z,94169.33
2018-01-23T00:12:14.985Z,94160.74
2018-01-23T00:14:41.578Z,94156.52
2018-01-23T00:17:08.555Z,94158.97
2018-01-23T00:19:35.863Z,94158.43
2018-01-23T00:22:02.460Z,94161.03
2018-01-23T00:24:29.115Z,94169.65
2018-01-23T00:26:55.694Z,94181.58
2018-01-23T00:29:22.258Z,94173.02
2018-01-23T00:31:49.601Z,94179.85
2018-01-23T00:34:16.942Z,94197.42
2018-01-23T00:36:43.523Z,94200.95
2018-01-23T00:39:10.129Z,94199.00
2018-01-23T00:41:36.766Z,94197.21
2018-01-23T00:44:04.139Z,94201.19
2018-01-23T00:46:31.458Z,94209.45
2018-01-23T00:48:58.017Z,94212.09
2018-01-23T00:51:24.621Z,94208.86
2018-01-23T00:53:52.015Z,94226.16
2018-01-23T00:56:19.337Z,94212.61
2018-01-23T00:58:45.941Z,94217.73
2018-01-23T01:01:12.498Z,94225.66
2018-01-23T01:03:39.106Z,94222.31
2018-01-23T01:06:05.777Z,94226.81
2018-01-23T01:08:32.375Z,94237.53
2018-01-23T01:10:58.965Z,94243.77
2018-01-23T01:13:25.570Z,94247.33
2018-01-23T01:15:52.202Z,94250.66
2018-01-23T01:18:18.774Z,94248.10
2018-01-23T01:20:46.171Z,94250.62
2018-01-23T01:23:12.752Z,94267.09
2018-01-23T01:25:39.363Z,94270.33
2018-01-23T01:28:05.952Z,94285.94
2018-01-23T01:30:32.593Z,94300.36
2018-01-23T01:32:59.904Z,94298.69
2018-01-23T01:35:26.501Z,94305.08
2018-01-23T01:37:53.082Z,94316.14
2018-01-23T01:40:19.665Z,94314.16
2018-01-23T01:42:46.231Z,94311.33
2018-01-23T01:45:12.854Z,94310.29
2018-01-23T01:47:39.407Z,94314.20
2018-01-23T01:50:05.992Z,94315.64
2018-01-23T01:52:33.330Z,94302.22
2018-01-23T01:54:59.952Z,94303.77
2018-01-23T01:57:28.406Z,94307.49
2018-01-23T01:59:55.078Z,94306.30
2018-01-23T02:02:21.643Z,94312.42
2018-01-23T02:04:48.233Z,94325.75
2018-01-23T02:07:14.911Z,94337.42
2018-01-23T02:09:41.517Z,94327.91
2018-01-23T02:12:08.850Z,94317.88
2018-01-23T02:14:35.461Z,94314.16
2018-01-23T02:17:02.755Z,94307.62
2018-01-23T02:19:29.336Z,94312.27
2018-01-23T02:21:55.961Z,94309.03
2018-01-23T02:24:22.559Z,94301.14
2018-01-23T02:26:49.152Z,94311.84
2018-01-23T02:29:15.737Z,94311.73
2018-01-23T02:31:42.323Z,94320.06
2018-01-23T02:34:09.633Z,94321.53
2018-01-23T02:36:36.256Z,94323.94
2018-01-23T02:39:02.932Z,94331.08
2018-01-23T02:41:30.281Z,94343.22
2018-01-23T02:43:56.862Z,94351.60
2018-01-23T02:46:23.458Z,94350.95
2018-01-23T02:48:50.847Z,94361.84
2018-01-23T02:51:18.172Z,94373.48
2018-01-23T02:53:44.751Z,94379.78
2018-01-23T02:56:11.371Z,94374.45
2018-01-23T02:58:38.653Z,94387.16
2018-01-23T03:01:05.241Z,94386.86
2018-01-23T03:03:32.579Z,94389.44
2018-01-23T03:05:59.200Z,94400.13
2018-01-23T03:08:25.781Z,94402.92
2018-01-23T03:10:52.392Z,94404.23
2018-01-23T03:13:18.986Z,94404.00
2018-01-23T03:15:45.592Z,94406.66
2018-01-23T03:18:12.907Z,94404.77
2018-01-23T03:20:39.504Z,94410.27
2018-01-23T03:23:06.098Z,94411.16
2018-01-23T03:25:32.722Z,94414.69
2018-01-23T03:27:59.338Z,94414.23
2018-01-23T03:30:25.916Z,94413.78
2018-01-23T03:32:52.501Z,94402.02
2018-01-23T03:35:19.135Z,94402.84
2018-01-23T03:37:45.698Z,94400.08
2018-01-23T03:40:12.315Z,94400.65
2018-01-23T03:42:38.905Z,94397.66
2018-01-23T03:45:05.476Z,94403.94
2018-01-23T03:47:32.034Z,94398.47
2018-01-23T03:49:58.653Z,94406.09
2018-01-23T03:52:25.298Z,94410.59
2018-01-23T03:54:51.913Z,94414.53
2018-01-23T03:57:19.233Z,94420.78
2018-01-23T03:59:45.799Z,94422.83
2018-01-23T04:02:12.426Z,94424.35
2018-01-23T04:04:39.731Z,94430.11
2018-01-23T04:07:06.315Z,94427.20
2018-01-23T04:09:33.642Z,94426.07
2018-01-23T04:12:00.199Z,94419.18
2018-01-23T04:14:27.531Z,94425.74
2018-01-23T04:16:54.078Z,94432.88
2018-01-23T04:19:20.646Z,94433.41
2018-01-23T04:21:47.226Z,94433.53
2018-01-23T04:24:13.790Z,94436.87
2018-01-23T04:26:40.386Z,94439.98
2018-01-23T04:29:06.943Z,94435.81
2018-01-23T04:31:33.519Z,94448.70
2018-01-23T04:34:00.121Z,94450.33
2018-01-23T04:36:27.810Z,94445.99
2018-01-23T04:38:55.119Z,94444.34
2018-01-23T04:41:21.711Z,94450.58
2018-01-23T04:43:48.275Z,94452.06
2018-01-23T04:46:14.871Z,94461.50
2018-01-23T04:48:42.175Z,94453.75
2018-01-23T04:51:09.046Z,94454.33
2018-01-23T04:53:35.654Z,94453.23
2018-01-23T04:56:02.220Z,94457.31
2018-01-23T04:58:28.817Z,94453.27
2018-01-23T05:00:55.445Z,94462.71
2018-01-23T05:03:22.118Z,94459.93
2018-01-23T05:05:48.678Z,94462.92
2018-01-23T05:08:15.274Z,94453.84
2018-01-23T05:10:41.894Z,94455.91
2018-01-23T05:13:08.494Z,94452.27
2018-01-23T05:15:35.823Z,94450.77
2018-01-23T05:18:02.419Z,94457.81
2018-01-23T05:20:29.018Z,94464.55
2018-01-23T05:22:55.646Z,94460.39
2018-01-23T05:25:22.230Z,94465.83
2018-01-23T05:27:48.814Z,94470.45
2018-01-23T05:30:16.262Z,94473.58
2018-01-23T05:32:42.821Z,94481.18
2018-01-23T05:35:09.463Z,94484.60
2018-01-23T05:37:36.769Z,94494.19
2018-01-23T05:40:03.440Z,94499.45
2018-01-23T05:42:30.091Z,94498.77
2018-01-23T05:44:56.650Z,94500.26
2018-01-23T05:47:23.418Z,94506.43
2018-01-23T05:49:50.007Z,94508.34
2018-01-23T05:52:17.342Z,94509.81
2018-01-23T05:54:43.947Z,94502.58
2018-01-23T05:57:10.531Z,94509.50
2018-01-23T05:59:37.833Z,94512.28
2018-01-23T06:02:04.523Z,94516.13
2018-01-23T06:04:31.807Z,94520.41
2018-01-23T06:06:58.425Z,94515.16
2018-01-23T06:09:25.745Z,94521.16
2018-01-23T06:11:52.446Z,94521.33
2018-01-23T06:14:19.164Z,94521.66
2018-01-23T06:16:46.477Z,94525.15
2018-01-23T06:19:13.095Z,94534.45
2018-01-23T06:21:39.683Z,94532.73
2018-01-23T06:24:06.354Z,94536.23
2018-01-23T06:26:33.068Z,94536.88
2018-01-23T06:28:59.712Z,94539.36
2018-01-23T06:31:26.347Z,94539.77
2018-01-23T06:33:52.918Z,94538.00
2018-01-23T06:36:19.698Z,94543.13
2018-01-23T06:38:46.335Z,94549.45
2018-01-23T06:41:12.894Z,94561.36
2018-01-23T06:43:39.477Z,94568.92
2018-01-23T06:46:06.104Z,94567.63
2018-01-23T06:48:32.681Z,94569.13
2018-01-23T06:50:59.394Z,94578.48
2018-01-23T06:53:25.974Z,94581.43
2018-01-23T06:55:53.290Z,94578.84
2018-01-23T06:58:19.907Z,94580.73
2018-01-23T07:00:46.467Z,94589.81
2018-01-23T07:03:14.077Z,94586.17
2018-01-23T07:05:40.638Z,94600.20
2018-01-23T07:08:07.210Z,94604.91
2018-01-23T07:10:33.776Z,94604.22
2018-01-23T07:13:00.358Z,94610.10
2018-01-23T07:15:26.952Z,94607.38
2018-01-23T07:17:53.561Z,94613.72
2018-01-23T07:20:21.738Z,94618.88
2018-01-23T07:22:48.298Z,94615.88
2018-01-23T07:25:14.884Z,94620.85
2018-01-23T07:27:41.502Z,94631.87
2018-01-23T07:30:09.010Z,94631.58
2018-01-23T07:32:37.453Z,94632.47
2018-01-23T07:35:04.014Z,94633.36
2018-01-23T07:37:30.621Z,94636.11
2018-01-23T07:39:57.222Z,94637.63
2018-01-23T07:42:23.873Z,94636.27
2018-01-23T07:44:50.474Z,94640.36
2018-01-23T07:47:17.142Z,94640.36
2018-01-23T07:49:43.789Z,94644.73
2018-01-23T07:52:10.403Z,94645.97
2018-01-23T07:54:37.068Z,94643.84
2018-01-23T07:57:03.641Z,94648.63
2018-01-23T07:59:30.278Z,94650.63
2018-01-23T08:01:56.918Z,94653.75
2018-01-23T08:04:24.246Z,94660.88
2018-01-23T08:06:51.080Z,94664.62
2018-01-23T08:09:17.859Z,94665.25
2018-01-23T08:11:44.493Z,94661.13
2018-01-23T08:14:11.039Z,94670.77
2018-01-23T08:16:38.465Z,94667.15
2018-01-23T08:19:05.030Z,94673.58
2018-01-23T08:21:31.643Z,94680.02
2018-01-23T08:23:58.210Z,94679.19
2018-01-23T08:26:25.686Z,94681.41
2018-01-23T08:28:52.271Z,94687.55
2018-01-23T08:31:18.982Z,94681.55
2018-01-23T08:33:45.653Z,94686.19
2018-01-23T08:36:12.239Z,94691.98
2018-01-23T08:38:38.904Z,94691.52
2018-01-23T08:41:05.486Z,94692.47
2018-01-23T08:43:32.073Z,94694.94
2018-01-23T08:45:58.666Z,94689.58
2018-01-23T08:48:26.067Z,94688.56
2018-01-23T08:50:52.647Z,94696.30
2018-01-23T08:53:19.964Z,94697.95
2018-01-23T08:55:46.597Z,94702.19
2018-01-23T08:58:13.196Z,94702.19
2018-01-23T09:00:40.677Z,94704.85
2018-01-23T09:03:07.354Z,94708.75
2018-01-23T09:05:33.985Z,94715.66
2018-01-23T09:08:00.542Z,94714.58
2018-01-23T09:10:27.143Z,94710.89
2018-01-23T09:12:53.721Z,94712.03
2018-01-23T09:15:20.324Z,94719.14
2018-01-23T09:17:46.958Z,94717.23
2018-01-23T09:20:13.580Z,94717.64
2018-01-23T09:22:40.262Z,94713.39
2018-01-23T09:25:06.827Z,94720.20
2018-01-23T09:27:33.409Z,94724.83
2018-01-23T09:30:00.213Z,94728.91
2018-01-23T09:32:26.761Z,94730.84
2018-01-23T09:34:53.390Z,94733.14
2018-01-23T09:37:20.313Z,94737.02
2018-01-23T09:39:47.757Z,94736.38
2018-01-23T09:42:14.359Z,94741.16
2018-01-23T09:44:40.954Z,94731.94
2018-01-23T09:47:07.518Z,94737.94
2018-01-23T09:49:34.470Z,94740.06
2018-01-23T09:52:01.065Z,94739.94
2018-01-23T09:54:27.651Z,94748.70
2018-01-23T09:56:54.275Z,94751.69
2018-01-23T09:59:20.978Z,94751.09
2018-01-23T10:01:48.414Z,94755.39
2018-01-23T10:04:15.221Z,94761.84
2018-01-23T10:06:41.818Z,94756.48
2018-01-23T10:09:08.465Z,94766.20
2018-01-23T10:11:35.035Z,94756.70
2018-01-23T10:14:01.603Z,94757.84
2018-01-23T10:16:28.962Z,94766.06
2018-01-23T10:18:56.271Z,94759.32
2018-01-23T10:21:22.913Z,94759.90
2018-01-23T10:23:49.743Z,94754.77
2018-01-23T10:26:16.303Z,94749.72
2018-01-23T10:28:42.941Z,94745.27
2018-01-23T10:31:09.834Z,94741.37
2018-01-23T10:33:36.830Z,94746.26
2018-01-23T10:36:04.152Z,94747.82
2018-01-23T10:38:30.716Z,94752.00
2018-01-23T10:40:58.819Z,94752.41
2018-01-23T10:43:26.203Z,94753.09
2018-01-23T10:45:52.825Z,94754.23
2018-01-23T10:48:20.134Z,94754.09
2018-01-23T10:50:46.961Z,94742.67
2018-01-23T10:53:13.549Z,94744.13
2018-01-23T10:55:41.157Z,94736.34
2018-01-23T10:58:08.481Z,94731.47
2018-01-23T11:00:41.213Z,94730.23
2018-01-23T11:03:07.833Z,94738.73
2018-01-23T11:05:34.455Z,94734.94
2018-01-23T11:08:01.013Z,94731.73
2018-01-23T11:10:28.397Z,94741.22
2018-01-23T11:12:54.986Z,94737.75
2018-01-23T11:15:21.637Z,94739.84
2018-01-23T11:17:51.730Z,94739.72
2018-01-23T11:20:22.407Z,94738.38
2018-01-23T11:22:49.028Z,94739.89
2018-01-23T11:25:15.674Z,94734.57
2018-01-23T11:27:42.303Z,94732.83
2018-01-23T11:30:08.960Z,94730.68
2018-01-23T11:32:35.606Z,94731.91
2018-01-23T11:35:02.240Z,94729.65
2018-01-23T11:37:29.613Z,94730.38
2018-01-23T11:39:56.242Z,94730.60
2018-01-23T11:42:22.891Z,94739.92
2018-01-23T11:44:50.230Z,94743.95
2018-01-23T11:47:17.570Z,94736.96
2018-01-23T11:49:44.124Z,94734.36
2018-01-23T11:52:10.702Z,94735.73
2018-01-23T11:54:37.330Z,94733.23
2018-01-23T11:57:03.927Z,94722.31
2018-01-23T11:59:31.401Z,94723.41
2018-01-23T12:01:58.118Z,94725.99
2018-01-23T12:04:24.701Z,94718.47
2018-01-23T12:06:51.291Z,94712.27
2018-01-23T12:09:17.953Z,94705.48
2018-01-23T12:11:45.262Z,94710.83
2018-01-23T12:14:11.871Z,94710.70
2018-01-23T12:16:38.623Z,94700.85
2018-01-23T12:19:05.202Z,94691.77
2018-01-23T12:21:31.757Z,94695.53
2018-01-23T12:23:59.144Z,94690.69
2018-01-23T12:26:25.898Z,94689.70
2018-01-23T12:28:52.489Z,94688.37
2018-01-23T12:31:19.196Z,94680.05
2018-01-23T12:33:46.126Z,94683.20
2018-01-23T12:36:12.742Z,94685.16
2018-01-23T12:38:40.078Z,94680.73
2018-01-23T12:41:07.393Z,94684.48
2018-01-23T12:43:34.731Z,94673.47
2018-01-23T12:46:01.355Z,94672.38
2018-01-23T12:48:27.943Z,94674.31
2018-01-23T12:50:55.259Z,94674.81
2018-01-23T12:53:21.888Z,94672.28
2018-01-23T12:55:48.454Z,94671.25
2018-01-23T12:58:15.800Z,94670.91
2018-01-23T13:00:42.402Z,94677.09
2018-01-23T13:03:09.045Z,94669.46
2018-01-23T13:05:36.155Z,94673.83
2018-01-23T13:08:02.776Z,94671.88
2018-01-23T13:10:29.377Z,94676.66
2018-01-23T13:12:55.961Z,94673.95
2018-01-23T13:15:22.590Z,94673.75
2018-01-23T13:17:50.218Z,94674.97
2018-01-23T13:20:16.854Z,94675.91
2018-01-23T13:22:43.423Z,94673.27
2018-01-23T13:25:10.769Z,94678.52
2018-01-23T13:27:38.117Z,94674.31
2018-01-23T13:30:04.918Z,94675.80
2018-01-23T13:32:31.508Z,94673.34
2018-01-23T13:34:58.821Z,94669.08
2018-01-23T13:37:26.206Z,94674.00
2018-01-23T13:39:52.838Z,94666.29
2018-01-23T13:42:19.523Z,94663.38
2018-01-23T13:44:46.453Z,94664.71
2018-01-23T13:47:13.946Z,94666.45
2018-01-23T13:49:40.546Z,94661.80
2018-01-23T13:52:07.190Z,94664.38
2018-01-23T13:54:34.498Z,94667.63
2018-01-23T13:57:01.065Z,94671.94
2018-01-23T13:59:27.656Z,94672.89
2018-01-23T14:01:54.348Z,94667.85
2018-01-23T14:04:21.661Z,94670.59
2018-01-23T14:06:48.287Z,94675.91
2018-01-23T14:09:14.853Z,94674.38
2018-01-23T14:11:42.316Z,94677.39
2018-01-23T14:14:09.661Z,94683.39
2018-01-23T14:16:36.230Z,94683.86
2018-01-23T14:19:02.988Z,94681.36
2018-01-23T14:21:29.559Z,94687.64
2018-01-23T14:23:56.138Z,94685.61
2018-01-23T14:26:22.765Z,94685.92
2018-01-23T14:28:50.073Z,94679.38
2018-01-23T14:31:17.527Z,94682.63
2018-01-23T14:33:44.111Z,94685.98
2018-01-23T14:36:11.659Z,94693.60
2018-01-23T14:38:38.260Z,94696.72
2018-01-23T14:41:05.618Z,94694.28
2018-01-23T14:43:32.262Z,94692.58
2018-01-23T14:45:58.848Z,94694.48
2018-01-23T14:48:25.408Z,94690.04
2018-01-23T14:50:52.079Z,94690.52
2018-01-23T14:53:18.687Z,94697.23
2018-01-23T14:55:45.258Z,94700.08
2018-01-23T14:58:12.070Z,94690.79
2018-01-23T15:00:38.666Z,94694.08
2018-01-23T15:03:05.251Z,94701.20
2018-01-23T15:05:31.844Z,94700.06
2018-01-23T15:07:58.522Z,94696.33
2018-01-23T15:10:25.099Z,94696.80
2018-01-23T15:12:52.417Z,94700.33
2018-01-23T15:15:19.106Z,94697.42
2018-01-23T15:17:45.714Z,94705.76
2018-01-23T15:20:12.365Z,94705.03
2018-01-23T15:22:38.969Z,94699.03
2018-01-23T15:25:05.530Z,94702.11
2018-01-23T15:27:32.166Z,94702.25
2018-01-23T15:29:58.835Z,94706.10
2018-01-23T15:32:25.500Z,94702.94
2018-01-23T15:34:52.146Z,94703.54
2018-01-23T15:37:18.742Z,94702.22
2018-01-23T15:39:45.342Z,94701.77
2018-01-23T15:42:11.973Z,94697.77
2018-01-23T15:44:39.343Z,94704.64
2018-01-23T15:47:05.965Z,94701.53
2018-01-23T15:49:33.309Z,94708.39
2018-01-23T15:51:59.874Z,94711.48
2018-01-23T15:54:26.475Z,94720.00
2018-01-23T15:56:53.107Z,94713.51
2018-01-23T15:59:19.707Z,94710.13
2018-01-23T16:01:46.561Z,94715.48
2018-01-23T16:04:13.322Z,94718.78
2018-01-23T16:06:39.995Z,94718.23
2018-01-23T16:09:06.616Z,94710.17
2018-01-23T16:11:33.269Z,94712.30
2018-01-23T16:13:59.838Z,94710.81
2018-01-23T16:16:27.202Z,94714.81
2018-01-23T16:18:54.050Z,94715.89
2018-01-23T16:21:20.800Z,94713.07
2018-01-23T16:23:47.590Z,94712.11
2018-01-23T16:26:14.177Z,94710.34
2018-01-23T16:28:40.857Z,94708.06
2018-01-23T16:31:07.541Z,94704.02
2018-01-23T16:33:34.162Z,94706.94
2018-01-23T16:36:00.790Z,94702.17
2018-01-23T16:38:28.182Z,94696.77
2018-01-23T16:40:54.761Z,94703.88
2018-01-23T16:43:21.428Z,94699.48
2018-01-23T16:45:48.749Z,94700.77
2018-01-23T16:48:15.343Z,94705.56
2018-01-23T16:50:41.937Z,94690.51
2018-01-23T16:53:08.510Z,94690.43
2018-01-23T16:55:35.115Z,94695.84
2018-01-23T16:58:02.716Z,94693.51
2018-01-23T17:00:29.346Z,94700.03
2018-01-23T17:02:56.034Z,94700.02
2018-01-23T17:05:22.711Z,94703.09
2018-01-23T17:07:50.046Z,94699.07
2018-01-23T17:10:17.432Z,94701.88
2018-01-23T17:12:44.039Z,94699.95
2018-01-23T17:15:10.622Z,94690.64
2018-01-23T17:17:37.281Z,94699.83
2018-01-23T17:20:03.941Z,94704.47
2018-01-23T17:22:30.560Z,94709.08
2018-01-23T17:24:57.209Z,94705.38
2018-01-23T17:27:23.919Z,94704.90
2018-01-23T17:29:50.789Z,94700.53
2018-01-23T17:32:18.459Z,94697.11
2018-01-23T17:34:45.607Z,94696.84
2018-01-23T17:37:12.672Z,94689.31
2018-01-23T17:39:39.678Z,94692.48
2018-01-23T17:42:06.593Z,94697.27
2018-01-23T17:44:33.593Z,94712.03
2018-01-23T17:47:00.568Z,94704.94
2018-01-23T17:49:27.518Z,94711.22
2018-01-23T17:51:54.376Z,94716.41
2018-01-23T17:54:21.301Z,94717.97
2018-01-23T17:56:48.197Z,94716.00
2018-01-23T17:59:15.412Z,94715.59
2018-01-23T18:01:42.363Z,94711.13
2018-01-23T18:04:11.817Z,94716.38
2018-01-23T18:06:38.844Z,94711.84
2018-01-23T18:09:06.541Z,94715.02
2018-01-23T18:11:33.414Z,94706.99
2018-01-23T18:14:00.165Z,94712.18
2018-01-23T18:16:26.813Z,94710.05
2018-01-23T18:18:53.541Z,94709.52
2018-01-23T18:21:20.187Z,94706.67
2018-01-23T18:23:46.850Z,94708.50
2018-01-23T18:26:14.737Z,94713.13
2018-01-23T18:28:41.420Z,94709.92
2018-01-23T18:31:08.198Z,94710.08
2018-01-23T18:33:35.762Z,94720.88
2018-01-23T18:36:02.661Z,94722.37
2018-01-23T18:38:29.395Z,94719.73
2018-01-23T18:40:56.012Z,94714.35
2018-01-23T18:43:22.654Z,94725.67
2018-01-23T18:45:49.411Z,94732.72
2018-01-23T18:48:16.163Z,94723.08
2018-01-23T18:50:42.971Z,94724.63
2018-01-23T18:53:09.871Z,94718.27
2018-01-23T18:55:37.417Z,94715.12
2018-01-23T18:58:04.133Z,94712.53
2018-01-23T19:00:30.930Z,94710.56
2018-01-23T19:02:57.821Z,94708.20
2018-01-23T19:05:24.638Z,94701.65
2018-01-23T19:07:51.573Z,94695.36
2018-01-23T19:10:18.458Z,94700.31
2018-01-23T19:12:45.269Z,94710.33
2018-01-23T19:15:12.090Z,94715.39
2018-01-23T19:17:38.957Z,94702.84
2018-01-23T19:20:05.788Z,94700.48
2018-01-23T19:22:32.661Z,94688.95
2018-01-23T19:24:59.394Z,94690.84
2018-01-23T19:27:26.028Z,94689.98
2018-01-23T19:29:52.679Z,94696.42
2018-01-23T19:32:19.321Z,94697.42
2018-01-23T19:34:45.949Z,94696.09
2018-01-23T19:37:12.557Z,94697.72
2018-01-23T19:39:39.967Z,94696.72
2018-01-23T19:42:06.594Z,94687.68
2018-01-23T19:44:33.178Z,94704.66
2018-01-23T19:47:00.567Z,94695.69
2018-01-23T19:49:27.196Z,94696.89
2018-01-23T19:51:54.053Z,94688.70
2018-01-23T19:54:21.447Z,94692.97
2018-01-23T19:56:48.105Z,94696.56
2018-01-23T19:59:16.350Z,94697.68
2018-01-23T20:01:42.991Z,94702.00
2018-01-23T20:04:09.707Z,94697.20
2018-01-23T20:06:36.342Z,94697.11
2018-01-23T20:09:03.743Z,94714.64
2018-01-23T20:11:30.373Z,94728.48
2018-01-23T20:13:57.078Z,94722.98
2018-01-23T20:16:23.693Z,94725.13
2018-01-23T20:18:50.494Z,94727.30
2018-01-23T20:21:17.126Z,94722.03
2018-01-23T20:23:43.731Z,94710.16
2018-01-23T20:26:10.418Z,94713.70
2018-01-23T20:28:37.775Z,94704.39
2018-01-23T20:31:05.177Z,94699.73
2018-01-23T20:33:31.937Z,94697.63
2018-01-23T20:35:58.539Z,94682.86
2018-01-23T20:38:25.254Z,94680.37
2018-01-23T20:40:52.618Z,94683.17
2018-01-23T20:43:20.081Z,94673.21
2018-01-23T20:45:46.698Z,94673.63
2018-01-23T20:48:14.085Z,94676.33
2018-01-23T20:50:40.758Z,94674.16
2018-01-23T20:53:07.366Z,94668.80
2018-01-23T20:55:34.110Z,94671.15
2018-01-23T20:58:00.747Z,94669.25
2018-01-23T21:00:27.378Z,94662.83
2018-01-23T21:02:54.038Z,94663.48
2018-01-23T21:05:20.816Z,94669.03
2018-01-23T21:07:47.383Z,94671.45
2018-01-23T21:10:14.035Z,94684.69
2018-01-23T21:12:40.679Z,94675.41
2018-01-23T21:15:07.307Z,94674.17
2018-01-23T21:17:33.918Z,94666.97
2018-01-23T21:20:01.347Z,94671.34
2018-01-23T21:22:28.030Z,94662.66
2018-01-23T21:24:54.660Z,94675.75
2018-01-23T21:27:21.280Z,94682.86
2018-01-23T21:29:48.654Z,94684.82
2018-01-23T21:32:15.215Z,94683.98
2018-01-23T21:34:41.882Z,94682.16
2018-01-23T21:37:09.387Z,94680.38
2018-01-23T21:39:36.027Z,94681.34
2018-01-23T21:42:02.730Z,94682.88
2018-01-23T21:44:29.473Z,94685.98
2018-01-23T21:46:56.171Z,94684.62
2018-01-23T21:49:22.759Z,94676.98
2018-01-23T21:51:50.112Z,94671.40
2018-01-23T21:54:17.496Z,94664.38
2018-01-23T21:56:44.065Z,94669.79
2018-01-23T21:59:10.705Z,94665.98
2018-01-23T22:01:37.338Z,94674.41
2018-01-23T22:04:04.023Z,94675.53
2018-01-23T22:06:31.425Z,94673.89
2018-01-23T22:08:57.969Z,94680.09
2018-01-23T22:11:24.691Z,94692.95
2018-01-23T22:13:51.291Z,94701.45
2018-01-23T22:16:17.909Z,94702.39
2018-01-23T22:18:44.535Z,94701.02
2018-01-23T22:21:11.106Z,94694.59
2018-01-23T22:23:37.745Z,94714.83
2018-01-23T22:26:05.067Z,94716.86
2018-01-23T22:28:31.688Z,94709.48
2018-01-23T22:30:58.337Z,94706.52
2018-01-23T22:33:24.955Z,94696.78
2018-01-23T22:35:51.521Z,94698.73
2018-01-23T22:38:18.169Z,94705.81
2018-01-23T22:40:44.749Z,94708.66
2018-01-23T22:43:11.354Z,94718.31
2018-01-23T22:45:38.724Z,94719.27
2018-01-23T22:48:05.455Z,94715.38
2018-01-23T22:50:32.072Z,94708.23
2018-01-23T22:52:58.646Z,94714.59
2018-01-23T22:55:25.496Z,94718.02
2018-01-23T22:57:52.067Z,94727.76
2018-01-23T23:00:18.670Z,94728.55
2018-01-23T23:02:45.290Z,94727.77
2018-01-23T23:05:11.921Z,94718.32
2018-01-23T23:07:38.494Z,94721.05
2018-01-23T23:10:05.200Z,94714.64
2018-01-23T23:12:31.791Z,94717.23
2018-01-23T23:14:58.365Z,94727.16
2018-01-23T23:17:24.994Z,94736.41
2018-01-23T23:19:52.354Z,94734.27
2018-01-23T23:22:19.671Z,94741.26
2018-01-23T23:24:46.242Z,94740.91
2018-01-23T23:27:12.838Z,94738.02
2018-01-23T23:29:39.421Z,94737.89
2018-01-23T23:32:06.084Z,94740.35
2018-01-23T23:34:32.710Z,94733.57
2018-01-23T23:36:59.324Z,94738.84
2018-01-23T23:39:26.660Z,94744.34
2018-01-23T23:41:53.258Z,94739.19
2018-01-23T23:44:19.833Z,94742.13
2018-01-23T23:46:46.448Z,94734.48
2018-01-23T23:49:13.058Z,94728.87
2018-01-23T23:51:39.627Z,94725.28
2018-01-23T23:54:06.209Z,94715.55
2018-01-23T23:56:32.861Z,94708.51
2018-01-23T23:58:59.440Z,94706.52
